createdAt,value
2017-01-29T00:00:12.339Z,72.40
2017-01-29T00:00:34.019Z,72.37
2017-01-29T00:00:55.824Z,72.46
2017-01-29T00:01:17.537Z,72.67
2017-01-29T00:01:44.016Z,72.64
2017-01-29T00:02:05.724Z,72.65
2017-01-29T00:02:32.305Z,72.61
2017-01-29T00:02:54.011Z,72.54
2017-01-29T00:03:15.705Z,72.57
2017-01-29T00:03:37.428Z,72.41
2017-01-29T00:03:59.130Z,72.50
2017-01-29T00:04:20.931Z,72.51
2017-01-29T00:04:42.647Z,72.51
2017-01-29T00:05:04.359Z,72.49
2017-01-29T00:05:26.164Z,72.38
2017-01-29T00:05:47.866Z,72.53
2017-01-29T00:06:09.569Z,72.62
2017-01-29T00:06:36.065Z,72.81
2017-01-29T00:06:57.904Z,72.69
2017-01-29T00:07:19.610Z,72.64
2017-01-29T00:07:46.096Z,72.62
2017-01-29T00:08:07.807Z,72.73
2017-01-29T00:08:29.511Z,72.82
2017-01-29T00:08:56.000Z,72.90
2017-01-29T00:09:17.703Z,72.93
2017-01-29T00:09:39.415Z,72.92
2017-01-29T00:10:01.127Z,72.99
2017-01-29T00:10:22.830Z,72.96
2017-01-29T00:10:49.303Z,72.91
2017-01-29T00:11:11.092Z,72.92
2017-01-29T00:11:32.791Z,73.03
2017-01-29T00:11:54.523Z,72.97
2017-01-29T00:12:16.314Z,72.98
2017-01-29T00:13:19.422Z,73.05
2017-01-29T00:13:41.145Z,72.99
2017-01-29T00:14:02.938Z,73.09
2017-01-29T00:14:24.657Z,73.03
2017-01-29T00:14:46.366Z,73.00
2017-01-29T00:15:12.877Z,72.97
2017-01-29T00:15:34.663Z,72.92
2017-01-29T00:15:56.369Z,72.79
2017-01-29T00:16:22.864Z,72.76
2017-01-29T00:16:44.657Z,72.72
2017-01-29T00:17:06.407Z,72.95
2017-01-29T00:17:28.113Z,73.14
2017-01-29T00:17:49.825Z,73.48
2017-01-29T00:18:11.621Z,73.46
2017-01-29T00:18:33.332Z,73.36
2017-01-29T00:18:55.035Z,73.38
2017-01-29T00:19:21.617Z,73.52
2017-01-29T00:19:43.505Z,73.63
2017-01-29T00:20:05.213Z,73.78
2017-01-29T00:20:36.472Z,73.67
2017-01-29T00:20:58.186Z,73.61
2017-01-29T00:21:19.879Z,73.73
2017-01-29T00:21:41.585Z,73.67
2017-01-29T00:22:03.373Z,73.68
2017-01-29T00:22:25.092Z,73.64
2017-01-29T00:22:51.588Z,73.65
2017-01-29T00:23:13.284Z,73.52
2017-01-29T00:23:35.083Z,73.23
2017-01-29T00:23:56.788Z,73.50
2017-01-29T00:24:18.484Z,73.61
2017-01-29T00:24:44.971Z,73.76
2017-01-29T00:25:06.764Z,73.76
2017-01-29T00:25:28.471Z,73.66
2017-01-29T00:25:54.952Z,73.69
2017-01-29T00:26:16.669Z,73.69
2017-01-29T00:26:43.169Z,73.77
2017-01-29T00:27:04.887Z,73.88
2017-01-29T00:27:26.594Z,73.82
2017-01-29T00:27:53.162Z,73.87
2017-01-29T00:28:14.906Z,73.82
2017-01-29T00:28:36.614Z,73.84
2017-01-29T00:29:03.099Z,73.74
2017-01-29T00:29:24.805Z,73.66
2017-01-29T00:29:46.526Z,73.69
2017-01-29T00:30:08.220Z,73.84
2017-01-29T00:30:29.927Z,73.92
2017-01-29T00:30:56.497Z,73.86
2017-01-29T00:31:18.203Z,73.94
2017-01-29T00:31:44.679Z,74.13
2017-01-29T00:32:06.467Z,74.15
2017-01-29T00:32:28.192Z,74.37
2017-01-29T00:32:49.895Z,74.45
2017-01-29T00:33:11.696Z,74.52
2017-01-29T00:33:33.456Z,74.67
2017-01-29T00:33:59.943Z,74.91
2017-01-29T00:34:21.649Z,75.00
2017-01-29T00:34:48.138Z,74.88
2017-01-29T00:35:09.931Z,74.76
2017-01-29T00:35:31.643Z,74.85
2017-01-29T00:35:53.356Z,74.82
2017-01-29T00:36:15.082Z,74.72
2017-01-29T00:36:36.890Z,74.82
2017-01-29T00:36:58.602Z,74.96
2017-01-29T00:37:20.308Z,75.15
2017-01-29T00:37:46.792Z,75.18
2017-01-29T00:38:08.619Z,75.16
2017-01-29T00:38:30.324Z,75.22
2017-01-29T00:38:52.052Z,75.03
2017-01-29T00:39:13.763Z,74.91
2017-01-29T00:39:35.559Z,74.70
2017-01-29T00:39:57.264Z,74.52
2017-01-29T00:40:28.531Z,74.44
2017-01-29T00:40:50.238Z,74.57
2017-01-29T00:41:11.946Z,74.62
2017-01-29T00:41:33.655Z,74.72
2017-01-29T00:41:55.469Z,74.65
2017-01-29T00:42:17.184Z,74.55
2017-01-29T00:42:43.673Z,74.50
2017-01-29T00:43:05.469Z,74.54
2017-01-29T00:43:27.174Z,74.64
2017-01-29T00:43:48.912Z,74.65
2017-01-29T00:44:10.611Z,74.68
2017-01-29T00:44:32.410Z,74.76
2017-01-29T00:44:54.109Z,74.70
2017-01-29T00:45:15.813Z,74.64
2017-01-29T00:45:37.527Z,74.69
2017-01-29T00:45:59.321Z,74.66
2017-01-29T00:46:21.030Z,74.62
2017-01-29T00:46:42.740Z,74.62
2017-01-29T00:47:04.450Z,74.86
2017-01-29T00:47:26.249Z,74.99
2017-01-29T00:47:47.948Z,75.06
2017-01-29T00:48:09.740Z,75.10
2017-01-29T00:48:31.454Z,75.11
2017-01-29T00:48:53.287Z,75.44
2017-01-29T00:49:15.011Z,75.33
2017-01-29T00:49:46.275Z,75.33
2017-01-29T00:50:07.979Z,74.98
2017-01-29T00:50:29.698Z,74.87
2017-01-29T00:50:51.401Z,74.87
2017-01-29T00:51:13.113Z,75.08
2017-01-29T00:51:34.921Z,75.28
2017-01-29T00:51:56.637Z,75.19
2017-01-29T00:52:18.336Z,75.30
2017-01-29T00:52:44.928Z,75.37
2017-01-29T00:53:11.312Z,75.38
2017-01-29T00:53:33.030Z,75.38
2017-01-29T00:53:54.789Z,75.55
2017-01-29T00:55:02.218Z,75.89
2017-01-29T00:55:23.909Z,75.83
2017-01-29T00:55:50.392Z,75.88
2017-01-29T00:56:12.100Z,75.76
2017-01-29T00:56:38.588Z,75.65
2017-01-29T00:57:00.388Z,75.54
2017-01-29T00:57:22.098Z,75.52
2017-01-29T00:57:48.580Z,75.39
2017-01-29T00:58:10.380Z,75.25
2017-01-29T00:58:32.092Z,75.27
2017-01-29T00:58:53.791Z,75.09
2017-01-29T00:59:15.497Z,75.01
2017-01-29T01:00:18.104Z,75.36
2017-01-29T01:00:39.813Z,75.34
2017-01-29T01:01:01.537Z,75.33
2017-01-29T01:01:23.243Z,75.30
2017-01-29T01:01:45.064Z,75.28
2017-01-29T01:02:13.563Z,75.37
2017-01-29T01:05:07.231Z,75.44
2017-01-29T01:05:28.933Z,75.41
2017-01-29T01:05:50.645Z,75.43
2017-01-29T01:06:12.389Z,75.39
2017-01-29T01:06:34.087Z,75.41
2017-01-29T01:06:55.819Z,75.32
2017-01-29T01:07:17.490Z,75.30
2017-01-29T01:08:24.827Z,75.30
2017-01-29T01:08:46.539Z,75.17
2017-01-29T01:09:08.249Z,75.17
2017-01-29T01:09:29.981Z,75.24
2017-01-29T01:09:51.706Z,75.17
2017-01-29T01:10:13.420Z,75.17
2017-01-29T01:10:35.144Z,75.20
2017-01-29T01:10:56.862Z,75.19
2017-01-29T01:11:23.351Z,75.29
2017-01-29T01:11:45.051Z,75.31
2017-01-29T01:12:06.759Z,75.37
2017-01-29T01:12:33.233Z,75.36
2017-01-29T01:12:54.945Z,75.36
2017-01-29T01:13:16.648Z,75.39
2017-01-29T01:13:47.899Z,75.33
2017-01-29T01:14:09.627Z,75.30
2017-01-29T01:14:36.115Z,75.20
2017-01-29T01:14:57.816Z,75.16
2017-01-29T01:15:24.289Z,75.21
2017-01-29T01:15:46.015Z,75.19
2017-01-29T01:16:07.732Z,75.13
2017-01-29T01:16:34.201Z,75.29
2017-01-29T01:16:55.906Z,75.36
2017-01-29T01:17:22.388Z,75.34
2017-01-29T01:17:44.097Z,75.32
2017-01-29T01:18:10.571Z,75.41
2017-01-29T01:18:32.276Z,75.48
2017-01-29T01:18:58.753Z,75.51
2017-01-29T01:19:23.300Z,75.42
2017-01-29T01:19:49.780Z,75.38
2017-01-29T01:20:11.533Z,75.54
2017-01-29T01:20:33.214Z,75.65
2017-01-29T01:20:54.917Z,75.62
2017-01-29T01:21:16.618Z,75.53
2017-01-29T01:21:43.108Z,75.50
2017-01-29T01:22:04.819Z,75.38
2017-01-29T01:22:31.312Z,75.35
2017-01-29T01:22:57.792Z,75.29
2017-01-29T01:23:19.498Z,75.30
2017-01-29T01:23:45.991Z,75.13
2017-01-29T01:24:07.687Z,75.06
2017-01-29T01:24:29.425Z,74.99
2017-01-29T01:24:55.901Z,74.91
2017-01-29T01:25:17.601Z,74.85
2017-01-29T01:25:39.319Z,74.97
2017-01-29T01:26:05.802Z,75.24
2017-01-29T01:26:27.508Z,75.20
2017-01-29T01:26:53.977Z,75.29
2017-01-29T01:27:15.677Z,75.38
2017-01-29T01:27:42.154Z,75.29
2017-01-29T01:28:03.861Z,74.86
2017-01-29T01:28:25.578Z,74.88
2017-01-29T01:28:47.280Z,75.15
2017-01-29T01:29:08.986Z,75.28
2017-01-29T01:29:35.473Z,75.33
2017-01-29T01:29:57.188Z,75.33
2017-01-29T01:30:18.896Z,75.37
2017-01-29T01:30:45.370Z,75.46
2017-01-29T01:31:07.076Z,75.47
2017-01-29T01:31:28.793Z,75.49
2017-01-29T01:31:55.261Z,75.37
2017-01-29T01:32:16.983Z,75.35
2017-01-29T01:32:43.466Z,75.39
2017-01-29T01:33:05.181Z,75.31
2017-01-29T01:33:31.680Z,75.20
2017-01-29T01:33:53.376Z,75.08
2017-01-29T01:34:17.312Z,74.98
2017-01-29T01:34:39.047Z,74.90
2017-01-29T01:35:00.755Z,74.92
2017-01-29T01:35:34.442Z,74.98
2017-01-29T01:35:53.600Z,74.99
2017-01-29T01:36:15.344Z,74.98
2017-01-29T01:36:37.053Z,75.01
2017-01-29T01:36:58.771Z,74.97
2017-01-29T01:37:25.283Z,74.85
2017-01-29T01:37:46.992Z,74.90
2017-01-29T01:38:11.123Z,74.99
2017-01-29T01:38:32.861Z,74.88
2017-01-29T01:38:59.335Z,74.58
2017-01-29T01:39:23.687Z,74.67
2017-01-29T01:40:26.806Z,74.81
2017-01-29T01:40:48.498Z,74.78
2017-01-29T01:41:17.898Z,74.75
2017-01-29T01:41:42.611Z,74.57
2017-01-29T01:42:11.507Z,74.55
2017-01-29T01:42:42.774Z,74.52
2017-01-29T01:43:04.487Z,74.57
2017-01-29T01:43:26.202Z,74.46
2017-01-29T01:44:29.469Z,74.56
2017-01-29T01:44:56.243Z,74.69
2017-01-29T01:45:22.797Z,74.77
2017-01-29T01:45:49.299Z,74.67
2017-01-29T01:46:12.995Z,74.45
2017-01-29T01:46:44.246Z,74.53
2017-01-29T01:47:05.945Z,74.63
2017-01-29T01:47:32.436Z,74.73
2017-01-29T01:47:54.160Z,74.68
2017-01-29T01:48:15.892Z,74.75
2017-01-29T01:48:37.632Z,74.67
2017-01-29T01:48:59.504Z,74.64
2017-01-29T01:49:35.926Z,74.57
2017-01-29T01:50:11.829Z,75.01
2017-01-29T01:50:42.598Z,75.10
2017-01-29T01:51:20.051Z,75.07
2017-01-29T01:51:51.530Z,74.92
2017-01-29T01:52:26.147Z,74.77
2017-01-29T01:52:55.080Z,74.64
2017-01-29T01:53:16.874Z,74.47
2017-01-29T01:53:43.342Z,74.55
2017-01-29T01:54:07.619Z,74.67
2017-01-29T01:54:38.874Z,74.50
2017-01-29T01:55:00.615Z,74.52
2017-01-29T01:55:29.751Z,74.43
2017-01-29T01:55:56.594Z,74.50
2017-01-29T01:56:23.735Z,74.47
2017-01-29T01:56:50.244Z,74.50
2017-01-29T01:57:11.972Z,74.51
2017-01-29T01:57:41.194Z,74.60
2017-01-29T01:58:05.697Z,74.59
2017-01-29T01:58:29.412Z,74.57
2017-01-29T01:59:27.271Z,74.46
2017-01-29T01:59:53.642Z,74.40
2017-01-29T02:00:24.897Z,74.30
2017-01-29T02:00:56.164Z,74.31
2017-01-29T02:01:20.270Z,74.29
2017-01-29T02:01:46.797Z,74.21
2017-01-29T02:02:08.497Z,74.21
2017-01-29T02:02:30.203Z,74.41
2017-01-29T02:02:56.688Z,74.34
2017-01-29T02:03:18.411Z,74.36
2017-01-29T02:03:49.662Z,74.36
2017-01-29T02:04:11.361Z,74.20
2017-01-29T02:04:37.844Z,74.14
2017-01-29T02:04:59.547Z,74.10
2017-01-29T02:05:26.033Z,74.05
2017-01-29T02:05:47.734Z,74.07
2017-01-29T02:06:09.457Z,74.02
2017-01-29T02:06:31.163Z,73.96
2017-01-29T02:06:54.889Z,74.00
2017-01-29T02:07:16.596Z,73.92
2017-01-29T02:07:47.862Z,73.94
2017-01-29T02:08:09.555Z,74.01
2017-01-29T02:08:31.262Z,74.01
2017-01-29T02:08:57.748Z,74.18
2017-01-29T02:09:19.457Z,74.25
2017-01-29T02:09:45.944Z,74.34
2017-01-29T02:10:07.735Z,74.29
2017-01-29T02:10:34.226Z,74.30
2017-01-29T02:10:55.922Z,74.25
2017-01-29T02:11:22.412Z,74.20
2017-01-29T02:11:44.108Z,74.21
2017-01-29T02:12:05.838Z,74.20
2017-01-29T02:12:32.313Z,74.31
2017-01-29T02:12:54.036Z,74.31
2017-01-29T02:13:20.600Z,74.35
2017-01-29T02:13:42.310Z,74.45
2017-01-29T02:14:13.612Z,74.62
2017-01-29T02:14:35.349Z,74.66
2017-01-29T02:14:57.075Z,74.70
2017-01-29T02:15:18.866Z,74.69
2017-01-29T02:15:40.658Z,74.68
2017-01-29T02:16:07.231Z,74.75
2017-01-29T02:16:28.934Z,74.77
2017-01-29T02:16:50.637Z,74.76
2017-01-29T02:17:17.120Z,74.70
2017-01-29T02:17:38.915Z,74.66
2017-01-29T02:18:00.629Z,74.73
2017-01-29T02:18:22.439Z,74.72
2017-01-29T02:18:44.565Z,74.69
2017-01-29T02:19:06.903Z,74.71
2017-01-29T02:19:33.464Z,74.75
2017-01-29T02:19:55.375Z,74.63
2017-01-29T02:20:21.926Z,74.61
2017-01-29T02:20:44.256Z,74.54
2017-01-29T02:21:10.973Z,74.58
2017-01-29T02:21:33.087Z,74.59
2017-01-29T02:21:54.838Z,74.58
2017-01-29T02:22:26.649Z,74.51
2017-01-29T02:22:48.461Z,74.44
2017-01-29T02:23:10.541Z,74.50
2017-01-29T02:23:37.126Z,74.72
2017-01-29T02:24:01.541Z,74.73
2017-01-29T02:24:23.597Z,74.75
2017-01-29T02:25:26.114Z,74.71
2017-01-29T02:25:47.849Z,74.61
2017-01-29T02:26:09.607Z,74.78
2017-01-29T02:26:31.315Z,74.81
2017-01-29T02:26:53.164Z,74.91
2017-01-29T02:27:14.902Z,74.72
2017-01-29T02:27:41.600Z,74.88
2017-01-29T02:28:03.302Z,74.86
2017-01-29T02:28:34.557Z,74.92
2017-01-29T02:28:56.467Z,74.87
2017-01-29T02:29:18.183Z,74.89
2017-01-29T02:29:39.884Z,74.89
2017-01-29T02:30:01.592Z,75.01
2017-01-29T02:30:23.286Z,74.93
2017-01-29T02:30:49.814Z,74.88
2017-01-29T02:31:11.619Z,74.87
2017-01-29T02:31:33.331Z,74.82
2017-01-29T02:31:55.053Z,74.83
2017-01-29T02:32:16.794Z,74.78
2017-01-29T02:32:43.312Z,74.78
2017-01-29T02:33:05.018Z,74.78
2017-01-29T02:33:26.781Z,74.86
2017-01-29T02:33:48.474Z,74.84
2017-01-29T02:34:15.789Z,74.83
2017-01-29T02:34:44.696Z,74.81
2017-01-29T02:35:11.837Z,74.86
2017-01-29T02:35:33.570Z,74.96
2017-01-29T02:36:00.686Z,74.85
2017-01-29T02:36:37.549Z,74.57
2017-01-29T02:37:13.808Z,74.46
2017-01-29T02:37:32.833Z,74.70
2017-01-29T02:37:58.967Z,74.66
2017-01-29T02:39:49.023Z,74.22
2017-01-29T02:40:18.042Z,74.37
2017-01-29T02:40:39.751Z,74.39
2017-01-29T02:41:06.237Z,74.38
2017-01-29T02:41:27.934Z,74.35
2017-01-29T02:41:49.678Z,74.17
2017-01-29T02:42:11.399Z,74.27
2017-01-29T02:42:33.133Z,74.31
2017-01-29T02:42:59.602Z,74.25
2017-01-29T02:43:21.355Z,74.37
2017-01-29T02:43:43.070Z,74.38
2017-01-29T02:44:09.544Z,74.35
2017-01-29T02:44:31.255Z,74.31
2017-01-29T02:44:52.965Z,74.28
2017-01-29T02:45:24.228Z,74.27
2017-01-29T02:45:45.960Z,74.35
2017-01-29T02:46:07.671Z,74.35
2017-01-29T02:46:38.923Z,74.30
2017-01-29T02:47:00.622Z,74.23
2017-01-29T02:47:27.115Z,74.19
2017-01-29T02:48:15.324Z,74.09
2017-01-29T02:48:37.073Z,74.04
2017-01-29T02:48:58.821Z,74.08
2017-01-29T02:49:20.529Z,74.13
2017-01-29T02:49:42.248Z,74.19
2017-01-29T02:50:03.947Z,74.20
2017-01-29T02:50:35.208Z,74.35
2017-01-29T02:50:56.916Z,74.38
2017-01-29T02:51:18.626Z,74.45
2017-01-29T02:51:40.344Z,74.48
2017-01-29T02:52:02.053Z,74.45
2017-01-29T02:52:23.777Z,74.44
2017-01-29T02:52:55.032Z,74.52
2017-01-29T02:53:16.722Z,74.50
2017-01-29T02:53:38.446Z,74.47
2017-01-29T02:54:09.694Z,74.39
2017-01-29T02:54:31.422Z,74.22
2017-01-29T02:54:53.150Z,74.31
2017-01-29T02:55:14.875Z,74.22
2017-01-29T02:55:36.603Z,74.02
2017-01-29T02:55:58.308Z,73.88
2017-01-29T02:56:24.798Z,73.76
2017-01-29T02:56:46.519Z,73.87
2017-01-29T02:57:17.797Z,73.74
2017-01-29T02:57:39.489Z,73.76
2017-01-29T02:58:10.776Z,73.60
2017-01-29T02:58:32.472Z,73.65
2017-01-29T02:58:58.955Z,73.74
2017-01-29T02:59:20.683Z,73.77
2017-01-29T02:59:42.425Z,73.89
2017-01-29T03:00:04.138Z,73.87
2017-01-29T03:00:25.934Z,73.93
2017-01-29T03:00:47.669Z,73.76
2017-01-29T03:01:16.968Z,73.74
2017-01-29T03:01:38.690Z,73.83
2017-01-29T03:02:09.961Z,73.83
2017-01-29T03:02:31.704Z,73.82
2017-01-29T03:03:02.972Z,73.87
2017-01-29T03:03:24.837Z,73.92
2017-01-29T03:03:46.575Z,73.80
2017-01-29T03:04:08.277Z,73.75
2017-01-29T03:04:30.005Z,73.69
2017-01-29T03:04:51.796Z,73.76
2017-01-29T03:05:13.535Z,73.86
2017-01-29T03:05:35.316Z,73.97
2017-01-29T03:06:06.573Z,73.97
2017-01-29T03:06:28.300Z,73.99
2017-01-29T03:06:50.019Z,74.04
2017-01-29T03:07:16.533Z,74.02
2017-01-29T03:07:38.319Z,73.97
2017-01-29T03:08:04.798Z,74.00
2017-01-29T03:08:26.543Z,74.02
2017-01-29T03:08:53.020Z,74.11
2017-01-29T03:09:14.748Z,74.11
2017-01-29T03:09:38.754Z,74.03
2017-01-29T03:10:10.012Z,74.00
2017-01-29T03:10:31.785Z,74.01
2017-01-29T03:10:53.472Z,74.04
2017-01-29T03:11:15.199Z,74.09
2017-01-29T03:11:36.901Z,74.06
2017-01-29T03:12:35.253Z,74.16
2017-01-29T03:12:56.959Z,74.02
2017-01-29T03:13:18.729Z,74.05
2017-01-29T03:13:40.473Z,74.00
2017-01-29T03:14:02.191Z,74.28
2017-01-29T03:14:28.723Z,74.30
2017-01-29T03:14:50.421Z,74.34
2017-01-29T03:15:12.174Z,74.14
2017-01-29T03:15:43.456Z,74.06
2017-01-29T03:16:05.266Z,74.04
2017-01-29T03:16:27.023Z,74.17
2017-01-29T03:16:53.567Z,74.20
2017-01-29T03:17:15.349Z,74.20
2017-01-29T03:17:37.094Z,74.27
2017-01-29T03:18:03.598Z,74.28
2017-01-29T03:18:25.383Z,74.19
2017-01-29T03:18:48.165Z,74.08
2017-01-29T03:19:14.844Z,73.95
2017-01-29T03:19:36.612Z,73.99
2017-01-29T03:19:58.310Z,74.08
2017-01-29T03:20:24.892Z,74.39
2017-01-29T03:20:51.384Z,74.44
2017-01-29T03:21:17.883Z,74.50
2017-01-29T03:21:39.678Z,74.64
2017-01-29T03:22:06.157Z,74.56
2017-01-29T03:22:30.524Z,74.64
2017-01-29T03:23:01.795Z,74.42
2017-01-29T03:23:23.560Z,74.20
2017-01-29T03:23:54.885Z,74.15
2017-01-29T03:24:16.961Z,74.28
2017-01-29T03:24:43.458Z,74.30
2017-01-29T03:25:05.275Z,74.39
2017-01-29T03:25:27.042Z,74.46
2017-01-29T03:25:58.393Z,74.32
2017-01-29T03:26:22.533Z,74.16
2017-01-29T03:27:28.414Z,74.17
2017-01-29T03:28:01.728Z,74.13
2017-01-29T03:28:35.589Z,74.28
2017-01-29T03:28:57.346Z,74.33
2017-01-29T03:29:28.617Z,74.38
2017-01-29T03:29:56.648Z,74.38
2017-01-29T03:30:18.389Z,74.44
2017-01-29T03:30:49.650Z,74.46
2017-01-29T03:31:11.396Z,74.44
2017-01-29T03:31:33.128Z,74.46
2017-01-29T03:32:01.957Z,74.39
2017-01-29T03:32:37.730Z,74.52
2017-01-29T03:32:58.104Z,74.46
2017-01-29T03:33:27.112Z,74.34
2017-01-29T03:33:56.008Z,74.39
2017-01-29T03:34:17.720Z,74.46
2017-01-29T03:34:52.450Z,74.54
2017-01-29T03:35:20.296Z,74.50
2017-01-29T03:36:23.496Z,74.50
2017-01-29T03:36:47.122Z,74.43
2017-01-29T03:37:13.634Z,74.31
2017-01-29T03:37:44.904Z,74.28
2017-01-29T03:38:45.273Z,74.18
2017-01-29T03:39:06.930Z,74.20
2017-01-29T03:40:52.492Z,74.44
2017-01-29T03:41:16.434Z,74.51
2017-01-29T03:41:47.855Z,74.45
2017-01-29T03:42:51.110Z,74.59
2017-01-29T03:43:20.488Z,74.42
2017-01-29T03:44:25.466Z,74.52
2017-01-29T03:44:54.248Z,74.55
2017-01-29T03:45:57.991Z,74.55
2017-01-29T03:46:33.404Z,74.56
2017-01-29T03:47:04.817Z,74.56
2017-01-29T03:47:34.239Z,74.43
2017-01-29T03:47:57.963Z,74.37
2017-01-29T03:48:29.279Z,74.41
2017-01-29T03:49:07.145Z,74.53
2017-01-29T03:50:20.341Z,74.48
2017-01-29T03:50:41.931Z,74.62
2017-01-29T03:51:13.029Z,74.58
2017-01-29T03:51:47.752Z,74.63
2017-01-29T03:53:08.380Z,74.43
2017-01-29T03:53:40.498Z,74.49
2017-01-29T03:54:14.648Z,74.39
2017-01-29T03:55:33.141Z,74.95
2017-01-29T03:55:57.269Z,75.00
2017-01-29T03:56:56.994Z,75.13
2017-01-29T03:57:23.502Z,75.08
2017-01-29T03:57:56.829Z,74.96
2017-01-29T03:58:25.759Z,74.82
2017-01-29T03:58:52.569Z,74.85
2017-01-29T03:59:57.675Z,74.79
2017-01-29T04:01:05.841Z,74.57
2017-01-29T04:03:06.162Z,74.16
2017-01-29T04:04:25.922Z,74.08
2017-01-29T04:05:36.959Z,73.97
2017-01-29T04:06:05.400Z,74.00
2017-01-29T04:08:01.545Z,73.57
2017-01-29T04:08:33.358Z,73.75
2017-01-29T04:09:02.123Z,73.93
2017-01-29T04:09:35.900Z,74.12
2017-01-29T04:10:07.372Z,74.25
2017-01-29T04:10:51.742Z,74.34
2017-01-29T04:11:22.037Z,74.30
2017-01-29T04:11:57.724Z,74.04
2017-01-29T04:12:31.727Z,73.82
2017-01-29T04:13:07.202Z,73.79
2017-01-29T04:13:45.448Z,73.91
2017-01-29T04:14:17.324Z,74.04
2017-01-29T04:14:58.143Z,74.40
2017-01-29T04:15:36.507Z,74.98
2017-01-29T04:16:23.835Z,75.10
2017-01-29T04:16:49.858Z,75.06
2017-01-29T04:17:22.088Z,75.18
2017-01-29T04:18:03.896Z,75.39
2017-01-29T04:20:29.884Z,75.20
2017-01-29T04:22:25.317Z,75.03
2017-01-29T04:24:20.098Z,74.88
2017-01-29T04:24:59.036Z,74.81
2017-01-29T04:27:34.278Z,74.32
2017-01-29T04:30:19.199Z,74.62
2017-01-29T04:33:31.721Z,74.58
2017-01-29T04:34:20.505Z,74.67
2017-01-29T04:37:06.496Z,74.83
2017-01-29T04:39:46.585Z,74.48
2017-01-29T04:51:26.727Z,73.45
2017-01-29T04:55:21.392Z,73.42
2017-01-29T05:00:58.750Z,73.27
2017-01-29T05:04:17.329Z,73.30
2017-01-29T05:06:29.969Z,73.33
2017-01-29T05:09:11.668Z,72.97
2017-01-29T07:13:26.422Z,72.28
2017-01-29T07:13:48.222Z,72.33
2017-01-29T07:14:09.942Z,72.49
2017-01-29T07:14:31.645Z,72.49
2017-01-29T07:14:53.341Z,72.54
2017-01-29T07:15:19.830Z,72.57
2017-01-29T07:15:41.525Z,72.50
2017-01-29T07:16:08.000Z,72.55
2017-01-29T07:16:29.804Z,72.74
2017-01-29T07:16:51.515Z,72.82
2017-01-29T07:17:54.116Z,72.78
2017-01-29T07:18:20.581Z,73.04
2017-01-29T07:18:42.317Z,72.80
2017-01-29T07:19:04.117Z,72.81
2017-01-29T07:19:25.826Z,72.84
2017-01-29T07:19:47.603Z,72.74
2017-01-29T07:20:09.398Z,72.63
2017-01-29T07:20:35.968Z,72.82
2017-01-29T07:20:57.657Z,72.87
2017-01-29T07:21:25.138Z,72.84
2017-01-29T07:21:46.922Z,72.87
2017-01-29T07:22:08.625Z,72.77
2017-01-29T07:22:30.341Z,72.75
2017-01-29T07:22:52.057Z,72.49
2017-01-29T07:23:13.859Z,72.59
2017-01-29T07:23:40.336Z,72.58
2017-01-29T07:24:02.060Z,72.48
2017-01-29T07:24:23.761Z,72.42
2017-01-29T07:24:45.552Z,72.50
2017-01-29T07:25:07.241Z,72.75
2017-01-29T07:25:28.962Z,72.74
2017-01-29T07:25:50.664Z,72.80
2017-01-29T07:26:12.484Z,72.92
2017-01-29T07:26:43.729Z,72.91
2017-01-29T07:27:05.435Z,73.06
2017-01-29T07:28:03.923Z,73.01
2017-01-29T07:28:25.639Z,73.08
2017-01-29T07:29:28.920Z,73.24
2017-01-29T07:29:50.615Z,73.16
2017-01-29T07:30:12.328Z,73.20
2017-01-29T07:30:34.117Z,73.13
2017-01-29T07:30:55.884Z,73.05
2017-01-29T07:31:17.596Z,73.10
2017-01-29T07:31:39.313Z,73.18
2017-01-29T07:32:01.087Z,73.10
2017-01-29T07:33:04.195Z,72.92
2017-01-29T07:33:40.228Z,72.84
2017-01-29T07:34:01.942Z,72.84
2017-01-29T07:34:33.335Z,72.83
2017-01-29T07:34:54.990Z,72.84
2017-01-29T07:35:57.569Z,72.94
2017-01-29T07:36:19.292Z,73.00
2017-01-29T07:36:41.001Z,73.02
2017-01-29T07:37:02.718Z,72.99
2017-01-29T07:37:29.262Z,72.90
2017-01-29T07:37:55.790Z,72.97
2017-01-29T07:38:17.476Z,72.93
2017-01-29T07:38:39.186Z,72.84
2017-01-29T07:39:05.771Z,72.95
2017-01-29T07:39:27.504Z,72.90
2017-01-29T07:39:49.246Z,73.00
2017-01-29T07:40:20.624Z,72.80
2017-01-29T07:40:42.264Z,72.77
2017-01-29T07:41:03.973Z,72.86
2017-01-29T07:41:25.712Z,72.82
2017-01-29T07:41:47.490Z,72.68
2017-01-29T07:42:09.195Z,72.74
2017-01-29T07:42:35.675Z,72.80
2017-01-29T07:42:57.362Z,72.86
2017-01-29T07:43:28.751Z,72.83
2017-01-29T07:43:50.407Z,72.99
2017-01-29T07:44:21.676Z,72.87
2017-01-29T07:44:43.459Z,72.83
2017-01-29T07:45:05.187Z,72.84
2017-01-29T07:45:26.897Z,72.79
2017-01-29T07:45:48.604Z,72.66
2017-01-29T07:46:15.175Z,72.67
2017-01-29T07:46:36.870Z,72.72
2017-01-29T07:47:08.122Z,72.64
2017-01-29T07:47:29.911Z,72.51
2017-01-29T07:47:51.616Z,72.54
2017-01-29T07:48:13.319Z,72.59
2017-01-29T07:48:35.034Z,72.57
2017-01-29T07:49:42.312Z,72.52
2017-01-29T07:50:08.875Z,72.61
2017-01-29T07:51:07.181Z,72.72
2017-01-29T07:51:28.969Z,72.83
2017-01-29T07:52:42.355Z,73.07
2017-01-29T07:53:04.168Z,73.05
2017-01-29T07:53:30.749Z,73.10
2017-01-29T07:53:52.550Z,73.06
2017-01-29T07:54:14.345Z,73.05
2017-01-29T07:54:40.945Z,72.89
2017-01-29T07:55:02.744Z,72.93
2017-01-29T07:55:24.563Z,72.94
2017-01-29T07:55:51.145Z,72.93
2017-01-29T07:56:12.958Z,72.97
2017-01-29T07:56:34.774Z,73.12
2017-01-29T07:56:56.480Z,73.19
2017-01-29T07:57:18.289Z,73.35
2017-01-29T07:57:44.890Z,73.37
2017-01-29T07:58:06.688Z,73.25
2017-01-29T07:58:33.159Z,73.33
2017-01-29T07:58:55.017Z,73.40
2017-01-29T07:59:16.813Z,73.43
2017-01-29T07:59:38.600Z,73.45
2017-01-29T08:00:00.421Z,73.53
2017-01-29T08:00:22.288Z,73.49
2017-01-29T08:00:48.859Z,73.57
2017-01-29T08:01:10.655Z,73.51
2017-01-29T08:01:37.124Z,73.65
2017-01-29T08:01:59.003Z,73.94
2017-01-29T08:02:25.585Z,73.41
2017-01-29T08:02:47.418Z,73.49
2017-01-29T08:03:13.908Z,73.79
2017-01-29T08:03:35.783Z,73.88
2017-01-29T08:03:57.597Z,73.79
2017-01-29T08:04:24.108Z,73.82
2017-01-29T08:04:45.946Z,73.82
2017-01-29T08:05:12.450Z,74.13
2017-01-29T08:05:34.335Z,73.98
2017-01-29T08:06:00.803Z,73.95
2017-01-29T08:06:22.594Z,73.89
2017-01-29T08:06:49.070Z,73.80
2017-01-29T08:07:10.848Z,73.79
2017-01-29T08:07:37.347Z,73.61
2017-01-29T08:07:59.244Z,73.79
2017-01-29T08:08:21.028Z,73.66
2017-01-29T08:08:42.833Z,73.50
2017-01-29T08:09:04.605Z,73.58
2017-01-29T08:09:26.317Z,73.71
2017-01-29T08:09:52.791Z,73.71
2017-01-29T08:10:14.546Z,73.58
2017-01-29T08:10:36.353Z,73.68
2017-01-29T08:10:58.057Z,73.85
2017-01-29T08:11:19.859Z,73.79
2017-01-29T08:11:46.432Z,73.63
2017-01-29T08:12:08.166Z,73.48
2017-01-29T08:12:29.883Z,73.42
2017-01-29T08:12:51.583Z,73.49
2017-01-29T08:13:13.290Z,73.53
2017-01-29T08:13:35.037Z,73.43
2017-01-29T08:13:56.833Z,73.41
2017-01-29T08:14:23.312Z,73.62
2017-01-29T08:14:45.024Z,73.45
2017-01-29T08:15:06.838Z,73.40
2017-01-29T08:15:38.085Z,73.06
2017-01-29T08:15:59.875Z,72.91
2017-01-29T08:16:21.672Z,72.88
2017-01-29T08:16:43.452Z,72.90
2017-01-29T08:17:05.263Z,73.00
2017-01-29T08:17:36.523Z,73.18
2017-01-29T08:17:58.299Z,73.24
2017-01-29T08:18:20.076Z,73.22
2017-01-29T08:18:46.567Z,72.71
2017-01-29T08:19:08.275Z,72.41
2017-01-29T08:20:15.563Z,72.50
2017-01-29T08:20:37.261Z,72.46
2017-01-29T08:21:40.345Z,72.25
2017-01-29T08:22:02.055Z,72.25
2017-01-29T08:22:23.784Z,71.91
2017-01-29T08:22:50.318Z,71.71
2017-01-29T08:23:12.074Z,71.75
2017-01-29T08:23:33.793Z,71.63
2017-01-29T08:24:36.323Z,71.22
2017-01-29T08:24:58.032Z,71.19
2017-01-29T08:25:19.771Z,71.22
2017-01-29T08:25:46.241Z,71.31
2017-01-29T08:26:07.940Z,71.27
2017-01-29T08:27:11.013Z,71.48
2017-01-29T08:27:32.716Z,71.58
2017-01-29T08:27:54.425Z,71.52
2017-01-29T08:28:25.688Z,71.35
2017-01-29T08:28:47.422Z,71.30
2017-01-29T08:29:18.699Z,71.22
2017-01-29T08:29:40.444Z,71.24
2017-01-29T08:30:11.699Z,71.22
2017-01-29T08:30:33.469Z,71.32
2017-01-29T08:31:04.720Z,71.84
2017-01-29T08:31:26.433Z,71.91
2017-01-29T08:31:48.151Z,71.89
2017-01-29T08:32:46.457Z,71.47
2017-01-29T08:33:08.165Z,71.44
2017-01-29T08:33:29.932Z,71.46
2017-01-29T08:33:56.499Z,71.40